createdAt,value
2019-05-03T06:27:41.101Z,3.80
2019-05-03T06:28:41.715Z,3.70
2019-05-03T06:29:41.000Z,3.80
2019-05-03T06:30:46.962Z,3.90
2019-05-03T06:31:41.181Z,3.80
2019-05-03T06:32:41.395Z,3.50
2019-05-03T06:33:42.456Z,4.00
2019-05-03T06:34:40.853Z,3.70
2019-05-03T11:58:52.187Z,3.20
2019-05-03T11:59:18.301Z,3.10
2019-05-03T12:00:17.194Z,3.00
2019-05-03T12:01:19.609Z,3.20
2019-05-03T12:02:17.000Z,3.30
2019-05-03T13:47:21.838Z,2.60
2019-05-03T13:48:23.543Z,3.00
2019-05-03T13:49:21.557Z,3.00
2019-05-03T13:50:21.545Z,2.70
2019-05-03T13:51:21.958Z,2.80
2019-05-03T13:52:21.299Z,3.20
2019-05-03T13:53:21.332Z,2.90
2019-05-03T13:54:21.331Z,2.80
2019-05-03T13:55:21.355Z,2.70
2019-05-03T13:56:21.390Z,2.70
2019-05-03T13:57:21.389Z,2.80
2019-05-03T13:58:21.435Z,2.90
2019-05-03T13:59:22.168Z,3.00
2019-05-03T14:00:21.445Z,2.80
2019-05-03T14:01:21.483Z,3.10
2019-05-03T14:02:21.490Z,3.30
2019-05-03T14:03:21.509Z,3.20
2019-05-03T14:04:21.547Z,2.80
2019-05-03T14:05:21.565Z,2.90
2019-05-03T14:06:21.572Z,2.80
2019-05-03T14:07:21.606Z,2.90
2019-05-03T14:08:21.606Z,2.80
2019-05-03T14:09:21.616Z,2.60
2019-05-03T14:10:21.630Z,2.80
2019-05-03T14:11:21.649Z,2.60
2019-05-03T14:12:21.717Z,3.10
2019-05-03T14:13:21.727Z,3.00
2019-05-03T14:14:21.712Z,3.00
2019-05-03T14:15:21.724Z,3.00
2019-05-03T14:16:21.755Z,2.90
2019-05-03T14:17:21.763Z,2.90
2019-05-03T14:18:21.787Z,2.80
2019-05-03T14:19:21.879Z,2.80
2019-05-03T14:20:21.818Z,3.20
2019-05-03T14:21:21.871Z,3.10
2019-05-03T14:22:21.927Z,3.00
2019-05-03T14:23:21.938Z,3.20
2019-05-03T14:24:21.908Z,3.10
2019-05-03T14:25:21.921Z,3.10
2019-05-03T14:26:21.962Z,3.10
2019-05-03T14:27:21.944Z,3.00
2019-05-03T14:28:22.007Z,2.90
2019-05-03T14:29:21.977Z,3.10
2019-05-03T14:30:31.123Z,3.00
2019-05-03T14:32:28.885Z,3.00
2019-05-03T14:33:28.356Z,2.80
2019-05-03T14:34:26.696Z,3.10
2019-05-03T14:35:27.155Z,3.10
2019-05-03T14:36:26.641Z,2.90
2019-05-03T14:37:26.595Z,3.20
2019-05-03T14:38:26.616Z,3.50
2019-05-03T14:39:35.907Z,3.00
2019-05-03T14:41:31.835Z,3.10
2019-05-03T14:42:31.766Z,3.00
2019-05-03T14:43:32.841Z,3.40
2019-05-03T14:44:31.711Z,3.30
2019-05-03T14:45:31.506Z,3.70
2019-05-03T14:46:33.264Z,3.30
2019-05-03T14:47:31.860Z,3.30
2019-05-03T14:48:31.323Z,2.80
